createdAt,value
2023-05-08T00:00:46.157Z,0.98
2023-05-08T00:04:08.650Z,0.70
2023-05-08T00:07:31.038Z,0.88
2023-05-08T00:10:53.295Z,0.77
2023-05-08T00:14:15.703Z,0.70
2023-05-08T00:17:38.069Z,0.63
2023-05-08T00:21:00.343Z,0.65
2023-05-08T00:24:22.652Z,0.88
2023-05-08T00:27:44.958Z,1.02
2023-05-08T00:31:07.168Z,0.90
2023-05-08T00:34:29.460Z,0.80
2023-05-08T00:37:51.988Z,1.00
2023-05-08T00:41:14.242Z,0.80
2023-05-08T00:44:36.582Z,0.57
2023-05-08T00:47:59.599Z,0.77
2023-05-08T00:51:22.823Z,0.60
2023-05-08T00:54:46.341Z,0.65
2023-05-08T00:58:09.336Z,0.90
2023-05-08T01:01:34.666Z,0.70
2023-05-08T01:04:57.256Z,0.80
2023-05-08T01:08:19.577Z,0.70
2023-05-08T01:11:46.564Z,0.80
2023-05-08T01:15:12.140Z,0.73
2023-05-08T01:18:44.329Z,0.55
2023-05-08T01:23:08.423Z,0.70
2023-05-08T01:26:52.220Z,0.60
2023-05-08T01:30:41.850Z,0.73
2023-05-08T01:34:09.090Z,0.85
2023-05-08T01:37:49.271Z,0.57
2023-05-08T01:41:30.783Z,0.80
2023-05-08T01:45:17.942Z,0.90
2023-05-08T01:48:49.358Z,0.50
2023-05-08T01:52:20.981Z,0.60
2023-05-08T01:55:47.119Z,0.70
2023-05-08T01:59:13.262Z,0.65
2023-05-08T02:02:36.201Z,0.52
2023-05-08T02:06:00.644Z,0.70
2023-05-08T02:09:24.424Z,0.90
2023-05-08T02:12:48.271Z,1.02
2023-05-08T02:16:12.510Z,0.60
2023-05-08T02:19:36.519Z,0.85
2023-05-08T02:22:59.266Z,0.80
2023-05-08T02:26:23.649Z,0.73
2023-05-08T02:29:45.952Z,0.80
2023-05-08T02:33:12.533Z,0.50
2023-05-08T02:36:35.089Z,0.80
2023-05-08T02:39:59.243Z,0.90
2023-05-08T02:43:22.103Z,0.97
2023-05-08T02:47:10.835Z,0.80
2023-05-08T02:51:00.147Z,0.70
2023-05-08T02:54:44.321Z,0.60
2023-05-08T02:58:31.792Z,0.63
2023-05-08T03:02:01.582Z,0.57
2023-05-08T03:05:35.220Z,0.57
2023-05-08T03:09:01.544Z,0.70
2023-05-08T03:12:28.971Z,0.63
2023-05-08T03:15:57.584Z,0.80
2023-05-08T03:19:26.779Z,0.40
2023-05-08T03:22:50.870Z,0.43
2023-05-08T03:26:18.231Z,0.60
2023-05-08T03:29:42.025Z,0.80
2023-05-08T03:33:05.662Z,0.50
2023-05-08T03:36:28.867Z,0.68
2023-05-08T03:39:55.786Z,0.60
2023-05-08T03:43:20.474Z,0.63
2023-05-08T03:46:43.101Z,0.70
2023-05-08T03:50:06.575Z,0.90
2023-05-08T03:53:30.763Z,0.77
2023-05-08T03:56:54.782Z,0.73
2023-05-08T04:00:45.649Z,0.47
2023-05-08T04:04:24.262Z,0.90
2023-05-08T04:07:58.406Z,0.70
2023-05-08T04:11:31.549Z,0.70
2023-05-08T04:14:59.044Z,0.52
2023-05-08T04:18:29.160Z,0.70
2023-05-08T04:21:58.479Z,0.60
2023-05-08T04:25:21.971Z,0.82
2023-05-08T04:28:46.918Z,0.90
2023-05-08T04:32:10.581Z,0.60
2023-05-08T04:35:34.347Z,0.63
2023-05-08T04:38:59.096Z,0.70
2023-05-08T04:42:21.948Z,0.70
2023-05-08T04:45:44.643Z,0.65
2023-05-08T04:49:07.059Z,0.75
2023-05-08T04:52:29.332Z,0.60
2023-05-08T04:55:52.543Z,0.80
2023-05-08T04:59:16.165Z,0.90
2023-05-08T05:02:39.533Z,0.50
2023-05-08T05:06:02.187Z,0.75
2023-05-08T05:09:25.801Z,0.52
2023-05-08T05:12:48.129Z,0.60
2023-05-08T05:16:10.522Z,0.55
2023-05-08T05:19:32.842Z,0.55
2023-05-08T05:22:56.372Z,0.52
2023-05-08T05:26:19.759Z,0.68
2023-05-08T05:29:42.068Z,0.60
2023-05-08T05:33:04.976Z,0.73
2023-05-08T05:36:27.526Z,0.80
2023-05-08T05:39:49.916Z,0.50
2023-05-08T05:43:12.413Z,0.88
2023-05-08T05:46:34.797Z,0.52
2023-05-08T05:49:59.087Z,0.60
2023-05-08T05:53:21.704Z,0.52
2023-05-08T05:56:44.058Z,0.65
2023-05-08T06:00:07.275Z,0.55
2023-05-08T06:03:36.443Z,0.60
2023-05-08T06:06:59.380Z,0.70
2023-05-08T06:10:21.653Z,0.75
2023-05-08T06:13:44.413Z,0.77
2023-05-08T06:17:08.108Z,0.70
2023-05-08T06:20:30.667Z,0.63
2023-05-08T06:23:52.947Z,0.80
2023-05-08T06:27:15.401Z,1.08
2023-05-08T06:30:37.840Z,0.65
2023-05-08T06:34:00.163Z,0.60
2023-05-08T06:37:22.944Z,0.70
2023-05-08T06:40:46.245Z,0.82
2023-05-08T06:44:08.599Z,0.57
2023-05-08T06:47:30.835Z,0.50
2023-05-08T06:50:53.080Z,0.70
2023-05-08T06:54:15.656Z,0.75
2023-05-08T06:57:37.995Z,0.93
2023-05-08T07:01:01.798Z,0.70
2023-05-08T07:04:24.221Z,0.80
2023-05-08T07:07:46.677Z,0.65
2023-05-08T07:11:10.133Z,1.00
2023-05-08T07:14:32.339Z,0.82
2023-05-08T07:17:54.642Z,0.70
2023-05-08T07:21:18.797Z,0.90
2023-05-08T07:24:41.000Z,0.88
2023-05-08T07:28:03.456Z,0.63
2023-05-08T07:31:26.409Z,0.95
2023-05-08T07:34:48.710Z,1.08
2023-05-08T07:38:11.479Z,1.13
2023-05-08T07:41:33.837Z,0.80
2023-05-08T07:44:56.167Z,1.00
2023-05-08T07:48:18.495Z,0.80
2023-05-08T07:51:41.373Z,1.00
2023-05-08T07:55:04.273Z,1.10
2023-05-08T07:58:26.944Z,0.98
2023-05-08T08:01:49.129Z,1.30
2023-05-08T08:05:12.206Z,1.70
2023-05-08T08:08:34.764Z,1.50
2023-05-08T08:11:57.074Z,1.50
2023-05-08T08:15:19.517Z,1.50
2023-05-08T08:18:41.855Z,1.40
2023-05-08T08:22:04.099Z,1.50
2023-05-08T08:25:27.790Z,1.38
2023-05-08T08:28:50.081Z,1.45
2023-05-08T08:32:12.346Z,1.65
2023-05-08T08:35:34.624Z,1.40
2023-05-08T08:38:56.811Z,1.63
2023-05-08T08:42:19.130Z,1.35
2023-05-08T08:45:41.420Z,1.20
2023-05-08T08:49:05.063Z,1.30
2023-05-08T08:52:45.780Z,1.60
2023-05-08T08:56:09.221Z,1.50
2023-05-08T08:59:32.919Z,1.00
2023-05-08T09:02:55.605Z,1.33
2023-05-08T09:06:19.238Z,1.30
2023-05-08T09:09:44.385Z,1.33
2023-05-08T09:16:29.235Z,1.23
2023-05-08T09:19:52.470Z,1.40
2023-05-08T09:23:17.288Z,1.70
2023-05-08T09:26:41.807Z,1.10
2023-05-08T09:30:04.407Z,1.27
2023-05-08T09:33:29.393Z,1.20
2023-05-08T09:36:51.662Z,0.93
2023-05-08T09:40:19.303Z,1.05
2023-05-08T09:43:59.765Z,1.25
2023-05-08T09:47:24.340Z,1.23
2023-05-08T09:50:46.628Z,0.80
2023-05-08T09:54:18.232Z,0.73
2023-05-08T09:57:51.826Z,0.98
2023-05-08T10:01:36.524Z,0.55
2023-05-08T10:04:59.008Z,0.70
2023-05-08T10:08:23.193Z,0.73
2023-05-08T10:11:52.840Z,0.50
2023-05-08T10:15:15.195Z,0.70
2023-05-08T10:18:40.752Z,0.75
2023-05-08T10:22:04.639Z,0.60
2023-05-08T10:25:34.700Z,0.50
2023-05-08T10:28:58.792Z,0.60
2023-05-08T10:32:22.789Z,0.52
2023-05-08T10:35:45.754Z,0.68
2023-05-08T10:39:08.872Z,0.75
2023-05-08T10:42:33.326Z,0.80
2023-05-08T10:45:57.807Z,0.50
2023-05-08T10:49:38.870Z,1.20
2023-05-08T10:53:22.600Z,1.45
2023-05-08T10:56:45.329Z,1.60
2023-05-08T11:00:08.574Z,2.60
2023-05-08T11:03:33.231Z,2.47
2023-05-08T11:06:59.058Z,2.95
2023-05-08T11:10:21.997Z,2.60
2023-05-08T11:13:53.296Z,2.45
2023-05-08T11:17:23.746Z,2.50
2023-05-08T11:21:00.659Z,1.80
2023-05-08T11:24:36.276Z,2.00
2023-05-08T11:28:07.381Z,2.00
2023-05-08T11:31:52.379Z,1.92
2023-05-08T11:35:37.287Z,1.70
2023-05-08T11:39:12.840Z,1.60
2023-05-08T11:42:35.288Z,1.40
2023-05-08T11:46:02.035Z,1.52
2023-05-08T11:49:29.509Z,1.75
2023-05-08T11:52:52.010Z,1.30
2023-05-08T11:56:15.387Z,1.38
2023-05-08T11:59:37.813Z,1.50
2023-05-08T12:03:00.116Z,1.58
2023-05-08T12:06:23.884Z,1.50
2023-05-08T12:09:46.744Z,1.38
2023-05-08T12:13:29.735Z,1.30
2023-05-08T12:16:52.391Z,1.20
2023-05-08T12:20:17.232Z,1.17
2023-05-08T12:23:39.881Z,1.23
2023-05-08T12:27:02.264Z,1.27
2023-05-08T12:30:25.418Z,1.10
2023-05-08T12:33:48.524Z,1.50
2023-05-08T12:37:10.948Z,1.23
2023-05-08T12:40:44.846Z,1.20
2023-05-08T12:44:18.856Z,0.80
2023-05-08T12:47:41.113Z,1.15
2023-05-08T12:51:04.771Z,1.10
2023-05-08T12:54:34.466Z,1.10
2023-05-08T12:58:04.574Z,1.05
2023-05-08T13:01:26.942Z,1.40
2023-05-08T13:04:55.412Z,1.08
2023-05-08T13:08:17.778Z,1.00
2023-05-08T13:11:40.053Z,1.05
2023-05-08T13:15:04.740Z,0.90
2023-05-08T13:18:27.818Z,1.27
2023-05-08T13:21:50.148Z,1.05
2023-05-08T13:25:12.632Z,0.90
2023-05-08T13:28:35.182Z,0.98
2023-05-08T13:31:57.491Z,1.20
2023-05-08T13:35:20.558Z,0.90
2023-05-08T13:38:43.930Z,0.80
2023-05-08T13:42:06.306Z,0.82
2023-05-08T13:45:28.686Z,1.08
2023-05-08T13:48:51.120Z,1.08
2023-05-08T13:52:13.342Z,0.93
2023-05-08T13:55:36.769Z,0.90
2023-05-08T13:58:58.997Z,1.08
2023-05-08T14:02:21.426Z,0.80
2023-05-08T14:05:43.832Z,0.90
2023-05-08T14:09:06.132Z,0.90
2023-05-08T14:12:28.567Z,1.00
2023-05-08T14:15:51.021Z,0.70
2023-05-08T14:19:13.337Z,0.90
2023-05-08T14:22:35.707Z,0.57
2023-05-08T14:25:57.947Z,0.90
2023-05-08T14:29:20.243Z,0.90
2023-05-08T14:32:42.512Z,0.68
2023-05-08T14:36:05.077Z,0.70
2023-05-08T14:39:27.342Z,1.00
2023-05-08T14:42:49.506Z,0.60
2023-05-08T14:46:11.764Z,0.90
2023-05-08T14:56:24.890Z,1.45
2023-05-08T14:59:54.887Z,0.60
2023-05-08T15:03:17.942Z,0.80
2023-05-08T15:06:40.432Z,0.90
2023-05-08T15:10:04.018Z,0.80
2023-05-08T15:13:26.285Z,1.02
2023-05-08T15:16:48.609Z,0.95
2023-05-08T15:20:10.978Z,0.65
2023-05-08T15:23:33.261Z,0.63
2023-05-08T15:26:55.608Z,0.73
2023-05-08T15:30:18.451Z,0.55
2023-05-08T15:33:44.683Z,0.80
2023-05-08T15:37:07.161Z,0.68
2023-05-08T15:40:29.406Z,0.65
2023-05-08T15:43:51.819Z,0.90
2023-05-08T15:47:14.038Z,0.80
2023-05-08T15:50:36.513Z,0.90
2023-05-08T15:53:58.784Z,0.60
2023-05-08T15:57:21.020Z,0.50
2023-05-08T16:00:45.203Z,0.70
2023-05-08T16:04:08.942Z,0.82
2023-05-08T16:07:31.225Z,0.68
2023-05-08T16:10:54.795Z,0.80
2023-05-08T16:14:17.190Z,0.70
2023-05-08T16:17:39.499Z,0.80
2023-05-08T16:21:01.768Z,0.93
2023-05-08T16:24:24.002Z,0.50
2023-05-08T16:27:46.252Z,0.68
2023-05-08T16:31:08.953Z,0.70
2023-05-08T16:34:31.282Z,0.40
2023-05-08T16:37:53.580Z,0.90
2023-05-08T16:41:15.811Z,0.60
2023-05-08T16:44:38.231Z,0.63
2023-05-08T16:48:00.560Z,0.70
2023-05-08T16:51:22.847Z,0.55
2023-05-08T16:54:45.029Z,0.75
2023-05-08T16:58:07.840Z,0.60
2023-05-08T17:01:30.048Z,1.02
2023-05-08T17:04:52.393Z,0.90
2023-05-08T17:08:14.673Z,0.50
2023-05-08T17:11:37.149Z,0.70
2023-05-08T17:14:59.336Z,0.77
2023-05-08T17:18:21.576Z,0.40
2023-05-08T17:21:43.765Z,0.50
2023-05-08T17:25:06.468Z,0.55
2023-05-08T17:28:28.737Z,0.50
2023-05-08T17:31:51.031Z,0.80
2023-05-08T17:35:13.398Z,0.77
2023-05-08T17:38:38.298Z,0.60
2023-05-08T17:42:00.625Z,0.70
2023-05-08T17:45:22.938Z,0.70
2023-05-08T17:48:45.228Z,0.70
2023-05-08T17:52:07.617Z,0.73
2023-05-08T17:55:31.683Z,0.80
2023-05-08T17:58:55.405Z,0.55
2023-05-08T18:02:17.664Z,1.65
2023-05-08T18:05:40.082Z,0.73
2023-05-08T18:09:02.471Z,0.85
2023-05-08T18:12:24.780Z,0.55
2023-05-08T18:15:47.216Z,0.85
2023-05-08T18:19:09.601Z,0.90
2023-05-08T18:22:31.836Z,0.80
2023-05-08T18:25:54.152Z,0.70
2023-05-08T18:29:16.373Z,1.00
2023-05-08T18:32:38.676Z,0.70
2023-05-08T18:36:01.032Z,0.60
2023-05-08T18:39:23.951Z,0.70
2023-05-08T18:42:46.286Z,0.90
2023-05-08T18:46:12.010Z,0.85
2023-05-08T18:49:34.386Z,0.80
2023-05-08T18:52:57.464Z,0.70
2023-05-08T18:56:19.899Z,0.55
2023-05-08T18:59:42.151Z,0.40
2023-05-08T19:03:04.621Z,0.52
2023-05-08T19:06:27.037Z,0.65
2023-05-08T19:09:49.445Z,0.80
2023-05-08T19:13:12.056Z,0.50
2023-05-08T19:16:34.393Z,0.52
2023-05-08T19:19:56.705Z,0.60
2023-05-08T19:23:19.002Z,0.73
2023-05-08T19:26:41.574Z,0.65
2023-05-08T19:30:04.627Z,0.70
2023-05-08T19:33:26.925Z,0.50
2023-05-08T19:36:49.280Z,0.68
2023-05-08T19:40:12.318Z,0.50
2023-05-08T19:43:34.671Z,0.50
2023-05-08T19:46:57.063Z,0.60
2023-05-08T19:50:19.331Z,1.08
2023-05-08T19:53:41.816Z,0.70
2023-05-08T19:57:04.252Z,0.40
2023-05-08T20:00:26.596Z,0.50
2023-05-08T20:03:48.989Z,0.50
2023-05-08T20:07:11.386Z,0.20
2023-05-08T20:10:33.756Z,0.50
2023-05-08T20:13:56.220Z,0.40
2023-05-08T20:17:18.428Z,0.40
2023-05-08T20:20:40.673Z,0.60
2023-05-08T20:24:03.226Z,0.40
2023-05-08T20:27:25.646Z,0.57
2023-05-08T20:30:49.179Z,0.63
2023-05-08T20:34:12.553Z,0.60
2023-05-08T20:37:34.834Z,0.35
2023-05-08T20:41:00.894Z,0.40
2023-05-08T20:44:23.575Z,0.47
2023-05-08T20:47:47.431Z,0.50
2023-05-08T20:51:09.738Z,0.30
2023-05-08T20:54:32.078Z,0.40
2023-05-08T20:57:54.521Z,0.40
2023-05-08T21:01:19.847Z,0.70
2023-05-08T21:04:43.055Z,0.30
2023-05-08T21:08:06.334Z,0.60
2023-05-08T21:11:28.680Z,0.50
2023-05-08T21:14:51.549Z,0.40
2023-05-08T21:18:14.097Z,0.47
2023-05-08T21:21:36.393Z,0.43
2023-05-08T21:24:58.650Z,0.40
2023-05-08T21:28:20.930Z,0.30
2023-05-08T21:31:43.262Z,0.40
2023-05-08T21:35:05.998Z,0.57
2023-05-08T21:38:28.318Z,0.60
2023-05-08T21:41:50.584Z,0.52
2023-05-08T21:45:12.994Z,0.40
2023-05-08T21:48:35.454Z,0.32
2023-05-08T21:51:57.996Z,0.40
2023-05-08T21:55:22.260Z,0.60
2023-05-08T21:58:44.571Z,0.60
2023-05-08T22:02:07.075Z,0.40
2023-05-08T22:05:29.391Z,0.40
2023-05-08T22:08:51.777Z,1.08
2023-05-08T22:12:14.028Z,0.63
2023-05-08T22:15:36.511Z,0.57
2023-05-08T22:18:58.998Z,0.40
2023-05-08T22:22:21.197Z,0.45
2023-05-08T22:25:43.593Z,0.47
2023-05-08T22:29:05.937Z,0.47
2023-05-08T22:32:28.745Z,0.47
2023-05-08T22:35:50.982Z,0.47
2023-05-08T22:39:13.269Z,0.65
2023-05-08T22:42:35.641Z,0.50
2023-05-08T22:45:58.234Z,0.47
2023-05-08T22:49:20.758Z,0.52
2023-05-08T22:52:43.354Z,0.60
2023-05-08T22:56:05.826Z,0.40
2023-05-08T22:59:28.160Z,0.43
2023-05-08T23:02:51.198Z,0.43
2023-05-08T23:06:13.421Z,0.65
2023-05-08T23:09:35.648Z,0.50
2023-05-08T23:12:57.957Z,0.43
2023-05-08T23:16:20.362Z,0.40
2023-05-08T23:19:42.766Z,0.47
2023-05-08T23:23:05.035Z,0.70
2023-05-08T23:26:27.482Z,0.50
2023-05-08T23:29:50.232Z,0.60
2023-05-08T23:33:12.606Z,0.63
2023-05-08T23:36:34.894Z,0.40
2023-05-08T23:39:57.164Z,0.50
2023-05-08T23:43:19.447Z,0.60
2023-05-08T23:46:41.821Z,0.52
2023-05-08T23:50:04.514Z,0.50
2023-05-08T23:53:26.800Z,0.47
2023-05-08T23:56:49.088Z,0.50
